createdAt,value
2023-01-11T00:01:38.202Z,100.00
2023-01-11T00:04:05.238Z,100.00
2023-01-11T00:06:32.154Z,100.00
2023-01-11T00:08:59.582Z,100.00
2023-01-11T00:11:26.923Z,100.00
2023-01-11T00:13:53.736Z,100.00
2023-01-11T00:16:20.561Z,100.00
2023-01-11T00:18:47.380Z,100.00
2023-01-11T00:21:14.959Z,100.00
2023-01-11T00:23:41.889Z,100.00
2023-01-11T00:26:13.177Z,100.00
2023-01-11T00:28:40.170Z,100.00
2023-01-11T00:31:07.101Z,100.00
2023-01-11T00:33:34.575Z,100.00
2023-01-11T00:36:01.535Z,100.00
2023-01-11T00:38:46.945Z,100.00
2023-01-11T00:41:34.650Z,100.00
2023-01-11T00:44:21.343Z,100.00
2023-01-11T00:47:09.662Z,100.00
2023-01-11T00:49:36.836Z,100.00
2023-01-11T00:52:11.472Z,100.00
2023-01-11T00:54:40.568Z,100.00
2023-01-11T00:57:08.745Z,100.00
2023-01-11T00:59:39.350Z,100.00
2023-01-11T01:02:07.900Z,100.00
2023-01-11T01:04:35.019Z,100.00
2023-01-11T01:07:01.965Z,100.00
2023-01-11T01:09:29.007Z,100.00
2023-01-11T01:11:55.916Z,100.00
2023-01-11T01:14:26.095Z,100.00
2023-01-11T01:16:55.334Z,100.00
2023-01-11T01:19:22.898Z,100.00
2023-01-11T01:21:50.976Z,100.00
2023-01-11T01:24:17.979Z,100.00
2023-01-11T01:26:44.927Z,100.00
2023-01-11T01:29:11.997Z,100.00
2023-01-11T01:31:38.908Z,100.00
2023-01-11T01:34:06.537Z,100.00
2023-01-11T01:36:33.867Z,100.00
2023-01-11T01:39:01.644Z,100.00
2023-01-11T01:41:29.172Z,100.00
2023-01-11T01:44:01.398Z,100.00
2023-01-11T01:46:33.736Z,100.00
2023-01-11T01:49:11.575Z,100.00
2023-01-11T01:51:55.723Z,100.00
2023-01-11T01:54:34.620Z,100.00
2023-01-11T01:57:19.946Z,100.00
2023-01-11T01:59:52.113Z,100.00
2023-01-11T02:02:24.881Z,100.00
2023-01-11T02:04:55.725Z,100.00
2023-01-11T02:07:33.520Z,100.00
2023-01-11T02:10:04.369Z,100.00
2023-01-11T02:12:39.917Z,100.00
2023-01-11T02:15:10.167Z,100.00
2023-01-11T02:17:37.220Z,100.00
2023-01-11T02:20:34.924Z,100.00
2023-01-11T02:23:37.491Z,100.00
2023-01-11T02:26:47.290Z,100.00
2023-01-11T02:29:47.307Z,100.00
2023-01-11T02:32:27.864Z,100.00
2023-01-11T02:35:32.300Z,100.00
2023-01-11T02:38:13.865Z,100.00
2023-01-11T02:41:10.837Z,100.00
2023-01-11T02:44:07.679Z,100.00
2023-01-11T02:46:59.141Z,100.00
2023-01-11T02:49:28.755Z,100.00
2023-01-11T02:52:08.539Z,100.00
2023-01-11T02:54:42.358Z,100.00
2023-01-11T02:57:11.697Z,100.00
2023-01-11T02:59:42.137Z,100.00
2023-01-11T03:02:09.841Z,100.00
2023-01-11T03:04:37.856Z,100.00
2023-01-11T03:07:44.804Z,100.00
2023-01-11T03:10:33.530Z,100.00
2023-01-11T03:13:16.929Z,100.00
2023-01-11T03:16:13.571Z,100.00
2023-01-11T03:18:50.411Z,100.00
2023-01-11T03:21:42.818Z,100.00
2023-01-11T03:24:15.743Z,100.00
2023-01-11T03:27:29.080Z,100.00
2023-01-11T03:30:14.389Z,100.00
2023-01-11T03:32:54.379Z,100.00
2023-01-11T03:35:40.839Z,100.00
2023-01-11T03:38:27.643Z,100.00
2023-01-11T03:41:06.795Z,100.00
2023-01-11T03:43:40.350Z,100.00
2023-01-11T03:46:14.912Z,100.00
2023-01-11T03:48:53.782Z,100.00
2023-01-11T03:51:37.349Z,100.00
2023-01-11T03:54:09.965Z,100.00
2023-01-11T03:56:54.056Z,100.00
2023-01-11T03:59:20.961Z,100.00
2023-01-11T04:01:47.796Z,100.00
2023-01-11T04:04:14.638Z,100.00
2023-01-11T04:06:41.637Z,100.00
2023-01-11T04:09:08.474Z,100.00
2023-01-11T04:11:35.253Z,100.00
2023-01-11T04:14:02.290Z,100.00
2023-01-11T04:16:29.335Z,100.00
2023-01-11T04:18:56.443Z,100.00
2023-01-11T04:21:23.267Z,100.00
2023-01-11T04:23:50.107Z,100.00
2023-01-11T04:26:17.635Z,100.00
2023-01-11T04:28:45.122Z,100.00
2023-01-11T04:31:12.705Z,100.00
2023-01-11T04:33:39.520Z,100.00
2023-01-11T04:36:09.609Z,100.00
2023-01-11T04:38:37.838Z,100.00
2023-01-11T04:41:23.841Z,100.00
2023-01-11T04:43:53.638Z,100.00
2023-01-11T04:46:20.556Z,100.00
2023-01-11T04:48:47.321Z,100.00
2023-01-11T04:51:14.117Z,100.00
2023-01-11T04:53:40.895Z,100.00
2023-01-11T04:56:08.582Z,100.00
2023-01-11T04:58:38.064Z,100.00
2023-01-11T05:01:11.171Z,100.00
2023-01-11T05:03:38.317Z,100.00
2023-01-11T05:06:05.686Z,100.00
2023-01-11T05:08:33.170Z,100.00
2023-01-11T05:11:03.479Z,100.00
2023-01-11T05:13:43.257Z,100.00
2023-01-11T05:16:26.239Z,100.00
2023-01-11T05:18:59.069Z,100.00
2023-01-11T05:21:31.457Z,100.00
2023-01-11T05:24:00.856Z,100.00
2023-01-11T05:26:35.270Z,100.00
2023-01-11T05:29:06.330Z,100.00
2023-01-11T05:31:36.274Z,100.00
2023-01-11T05:34:03.707Z,100.00
2023-01-11T05:36:30.534Z,100.00
2023-01-11T05:38:57.656Z,100.00
2023-01-11T05:41:27.478Z,100.00
2023-01-11T05:44:14.171Z,100.00
2023-01-11T05:46:44.139Z,100.00
2023-01-11T05:49:13.428Z,100.00
2023-01-11T05:51:42.303Z,100.00
2023-01-11T05:54:14.561Z,100.00
2023-01-11T05:56:42.975Z,100.00
2023-01-11T05:59:10.280Z,100.00
2023-01-11T06:01:37.328Z,100.00
2023-01-11T06:04:07.089Z,100.00
2023-01-11T06:06:34.373Z,100.00
2023-01-11T06:09:01.359Z,100.00
2023-01-11T06:11:28.284Z,100.00
2023-01-11T06:13:55.303Z,100.00
2023-01-11T06:16:23.593Z,100.00
2023-01-11T06:18:53.408Z,100.00
2023-01-11T06:21:21.410Z,100.00
2023-01-11T06:23:53.878Z,100.00
2023-01-11T06:26:23.282Z,100.00
2023-01-11T06:28:51.440Z,100.00
2023-01-11T06:31:19.119Z,100.00
2023-01-11T06:33:47.236Z,100.00
2023-01-11T06:36:16.129Z,100.00
2023-01-11T06:38:43.874Z,100.00
2023-01-11T06:41:12.467Z,100.00
2023-01-11T06:43:42.226Z,100.00
2023-01-11T06:46:15.269Z,100.00
2023-01-11T06:48:43.525Z,100.00
2023-01-11T06:51:12.003Z,100.00
2023-01-11T06:53:41.047Z,100.00
2023-01-11T06:56:12.317Z,100.00
2023-01-11T06:58:39.699Z,100.00
2023-01-11T07:01:07.249Z,100.00
2023-01-11T07:03:34.556Z,100.00
2023-01-11T07:06:02.111Z,100.00
2023-01-11T07:08:28.864Z,100.00
2023-01-11T07:10:55.742Z,100.00
2023-01-11T07:13:22.957Z,100.00
2023-01-11T07:15:52.283Z,100.00
2023-01-11T07:18:19.951Z,100.00
2023-01-11T07:20:47.591Z,100.00
2023-01-11T07:23:14.577Z,100.00
2023-01-11T07:25:41.784Z,100.00
2023-01-11T07:28:09.348Z,100.00
2023-01-11T07:30:56.197Z,100.00
2023-01-11T07:33:25.897Z,100.00
2023-01-11T07:35:53.714Z,100.00
2023-01-11T07:38:20.846Z,100.00
2023-01-11T07:40:47.868Z,100.00
2023-01-11T07:43:15.302Z,100.00
2023-01-11T07:45:48.066Z,100.00
2023-01-11T07:48:20.693Z,100.00
2023-01-11T07:50:48.591Z,100.00
2023-01-11T07:53:15.733Z,100.00
2023-01-11T07:55:42.841Z,100.00
2023-01-11T07:58:13.639Z,100.00
2023-01-11T08:00:41.676Z,100.00
2023-01-11T08:03:09.405Z,100.00
2023-01-11T08:05:36.463Z,100.00
2023-01-11T08:08:04.406Z,100.00
2023-01-11T08:10:31.626Z,100.00
2023-01-11T08:13:17.540Z,100.00
2023-01-11T08:15:44.672Z,100.00
2023-01-11T08:18:12.505Z,100.00
2023-01-11T08:20:40.548Z,100.00
2023-01-11T08:23:10.409Z,100.00
2023-01-11T08:25:37.931Z,100.00
2023-01-11T08:28:07.575Z,100.00
2023-01-11T08:30:36.481Z,100.00
2023-01-11T08:33:05.532Z,100.00
2023-01-11T08:35:39.195Z,100.00
2023-01-11T08:38:06.845Z,100.00
2023-01-11T08:40:34.182Z,100.00
2023-01-11T08:43:01.153Z,100.00
2023-01-11T08:45:28.208Z,100.00
2023-01-11T08:47:56.019Z,100.00
2023-01-11T08:50:23.192Z,100.00
2023-01-11T08:52:51.845Z,100.00
2023-01-11T08:55:19.936Z,100.00
2023-01-11T08:57:47.297Z,100.00
2023-01-11T09:00:15.640Z,100.00
2023-01-11T09:02:42.716Z,100.00
2023-01-11T09:05:10.100Z,100.00
2023-01-11T09:07:37.082Z,100.00
2023-01-11T09:10:05.337Z,100.00
2023-01-11T09:12:32.893Z,100.00
2023-01-11T09:14:59.993Z,100.00
2023-01-11T09:17:28.023Z,100.00
2023-01-11T09:19:55.057Z,100.00
2023-01-11T09:22:22.192Z,100.00
2023-01-11T09:24:49.441Z,100.00
2023-01-11T09:27:16.756Z,100.00
2023-01-11T09:29:46.160Z,100.00
2023-01-11T09:32:13.121Z,100.00
2023-01-11T09:34:41.742Z,100.00
2023-01-11T09:37:08.930Z,100.00
2023-01-11T09:39:35.759Z,100.00
2023-01-11T09:42:36.688Z,100.00
2023-01-11T09:45:17.790Z,100.00
2023-01-11T09:48:04.951Z,100.00
2023-01-11T09:50:41.181Z,100.00
2023-01-11T09:53:22.480Z,100.00
2023-01-11T09:55:52.894Z,100.00
2023-01-11T09:58:42.600Z,100.00
2023-01-11T10:01:39.359Z,100.00
2023-01-11T10:04:58.669Z,100.00
2023-01-11T10:07:34.605Z,100.00
2023-01-11T10:18:31.227Z,100.00
2023-01-11T10:19:41.745Z,100.00
2023-01-11T10:22:19.603Z,100.00
2023-01-11T10:25:21.795Z,100.00
2023-01-11T10:28:20.114Z,100.00
2023-01-11T10:30:57.498Z,100.00
2023-01-11T10:34:14.113Z,100.00
2023-01-11T10:37:18.761Z,100.00
2023-01-11T10:40:39.742Z,100.00
2023-01-11T10:43:21.898Z,100.00
2023-01-11T10:45:55.698Z,100.00
2023-01-11T10:48:40.318Z,100.00
2023-01-11T10:51:42.004Z,100.00
2023-01-11T10:54:18.128Z,100.00
2023-01-11T10:57:09.063Z,100.00
2023-01-11T11:00:04.501Z,100.00
2023-01-11T11:02:38.858Z,100.00
2023-01-11T11:06:00.035Z,100.00
2023-01-11T11:08:40.829Z,100.00
2023-01-11T11:11:26.795Z,100.00
2023-01-11T11:14:14.327Z,100.00
2023-01-11T11:17:01.335Z,100.00
2023-01-11T11:19:32.989Z,100.00
2023-01-11T11:22:00.764Z,100.00
2023-01-11T11:24:52.049Z,100.00
2023-01-11T11:27:51.544Z,100.00
2023-01-11T11:30:39.425Z,100.00
2023-01-11T11:33:20.660Z,100.00
2023-01-11T11:36:06.690Z,100.00
2023-01-11T11:39:00.455Z,100.00
2023-01-11T11:41:27.408Z,100.00
2023-01-11T11:44:15.134Z,100.00
2023-01-11T11:46:56.851Z,100.00
2023-01-11T11:49:24.167Z,100.00
2023-01-11T11:51:53.051Z,100.00
2023-01-11T11:54:32.631Z,100.00
2023-01-11T11:57:25.145Z,100.00
2023-01-11T12:00:25.297Z,100.00
2023-01-11T12:03:17.333Z,100.00
2023-01-11T12:06:10.315Z,100.00
2023-01-11T12:08:37.518Z,100.00
2023-01-11T12:11:08.211Z,100.00
2023-01-11T12:13:38.845Z,100.00
2023-01-11T12:16:22.983Z,100.00
2023-01-11T12:18:49.942Z,100.00
2023-01-11T12:21:23.565Z,100.00
2023-01-11T12:24:19.138Z,100.00
2023-01-11T12:27:05.606Z,100.00
2023-01-11T12:29:47.710Z,100.00
2023-01-11T12:32:47.841Z,100.00
2023-01-11T12:35:29.869Z,100.00
2023-01-11T12:38:05.769Z,100.00
2023-01-11T12:41:01.603Z,100.00
2023-01-11T12:43:43.525Z,100.00
2023-01-11T12:46:41.266Z,100.00
2023-01-11T12:49:23.408Z,100.00
2023-01-11T12:52:36.400Z,99.47
2023-01-11T12:55:50.362Z,98.37
2023-01-11T12:58:24.141Z,96.49
2023-01-11T13:01:40.842Z,97.62
2023-01-11T13:04:45.311Z,97.75
2023-01-11T13:07:46.019Z,96.56
2023-01-11T13:10:59.435Z,94.74
2023-01-11T13:13:53.480Z,94.53
2023-01-11T13:16:53.599Z,95.05
2023-01-11T13:19:59.543Z,95.97
2023-01-11T13:22:35.295Z,96.60
2023-01-11T13:25:12.584Z,98.50
2023-01-11T13:27:40.998Z,98.86
2023-01-11T13:30:14.750Z,98.30
2023-01-11T13:33:05.679Z,99.28
2023-01-11T13:35:43.116Z,100.00
2023-01-11T13:38:39.983Z,100.00
2023-01-11T13:41:26.591Z,100.00
2023-01-11T13:44:18.106Z,98.46
2023-01-11T13:47:07.018Z,99.54
2023-01-11T13:50:14.428Z,100.00
2023-01-11T13:52:53.147Z,100.00
2023-01-11T13:55:35.221Z,100.00
2023-01-11T13:58:42.375Z,99.38
2023-01-11T14:01:19.853Z,99.84
2023-01-11T14:04:06.033Z,99.96
2023-01-11T14:07:08.770Z,99.39
2023-01-11T14:10:06.687Z,96.71
2023-01-11T14:13:01.491Z,97.06
2023-01-11T14:15:40.982Z,97.20
2023-01-11T14:18:16.717Z,97.81
2023-01-11T14:20:55.181Z,97.25
2023-01-11T14:23:54.889Z,95.60
2023-01-11T14:26:55.791Z,96.18
2023-01-11T14:30:11.343Z,97.07
2023-01-11T14:33:20.742Z,95.88
2023-01-11T14:36:28.849Z,95.45
2023-01-11T14:39:41.446Z,95.58
2023-01-11T14:42:35.262Z,97.82
2023-01-11T14:45:26.620Z,96.06
2023-01-11T14:48:15.961Z,95.90
2023-01-11T14:51:33.256Z,95.53
2023-01-11T14:54:44.963Z,97.19
2023-01-11T14:57:39.860Z,98.00
2023-01-11T15:00:18.957Z,98.60
2023-01-11T15:02:51.212Z,99.17
2023-01-11T15:05:53.840Z,100.00
2023-01-11T15:08:27.044Z,100.00
2023-01-11T15:11:16.299Z,100.00
2023-01-11T15:13:52.759Z,100.00
2023-01-11T15:16:59.322Z,100.00
2023-01-11T15:19:34.302Z,100.00
2023-01-11T15:22:05.928Z,100.00
2023-01-11T15:24:41.067Z,100.00
2023-01-11T15:27:26.478Z,100.00
2023-01-11T15:29:59.136Z,100.00
2023-01-11T15:32:35.782Z,100.00
2023-01-11T15:35:33.665Z,100.00
2023-01-11T15:38:30.390Z,100.00
2023-01-11T15:41:21.335Z,100.00
2023-01-11T15:44:17.369Z,100.00
2023-01-11T15:47:50.497Z,100.00
2023-01-11T15:51:03.562Z,100.00
2023-01-11T15:54:08.756Z,100.00
2023-01-11T15:56:35.664Z,100.00
2023-01-11T15:59:23.837Z,100.00
2023-01-11T16:02:15.777Z,100.00
2023-01-11T16:04:53.352Z,100.00
2023-01-11T16:07:53.719Z,100.00
2023-01-11T16:10:51.627Z,100.00
2023-01-11T16:14:00.263Z,100.00
2023-01-11T16:16:33.369Z,100.00
2023-01-11T16:19:21.995Z,100.00
2023-01-11T16:21:55.647Z,100.00
2023-01-11T16:24:29.591Z,100.00
2023-01-11T16:27:01.765Z,100.00
2023-01-11T16:29:37.267Z,100.00
2023-01-11T16:32:19.339Z,100.00
2023-01-11T16:34:47.098Z,100.00
2023-01-11T16:37:27.138Z,100.00
2023-01-11T16:40:10.569Z,100.00
2023-01-11T16:42:50.196Z,100.00
2023-01-11T16:45:23.165Z,100.00
2023-01-11T16:48:02.049Z,100.00
2023-01-11T16:50:29.780Z,100.00
2023-01-11T16:53:00.254Z,100.00
2023-01-11T16:55:36.890Z,100.00
2023-01-11T16:58:20.801Z,100.00
2023-01-11T17:01:16.543Z,100.00
2023-01-11T17:03:55.015Z,100.00
2023-01-11T17:06:25.072Z,100.00
2023-01-11T17:08:57.398Z,100.00
2023-01-11T17:11:50.543Z,100.00
2023-01-11T17:14:37.009Z,100.00
2023-01-11T17:17:08.392Z,100.00
2023-01-11T17:19:43.177Z,100.00
2023-01-11T17:22:29.523Z,100.00
2023-01-11T17:25:12.788Z,100.00
2023-01-11T17:27:50.104Z,100.00
2023-01-11T17:30:25.852Z,100.00
2023-01-11T17:32:58.964Z,100.00
2023-01-11T17:35:36.589Z,100.00
2023-01-11T17:38:08.150Z,100.00
2023-01-11T17:40:39.502Z,100.00
2023-01-11T17:43:44.206Z,100.00
2023-01-11T17:46:19.352Z,100.00
2023-01-11T17:48:59.605Z,100.00
2023-01-11T17:51:31.479Z,100.00
2023-01-11T17:53:58.394Z,100.00
2023-01-11T17:56:41.807Z,100.00
2023-01-11T17:59:11.465Z,100.00
2023-01-11T18:01:38.855Z,100.00
2023-01-11T18:04:05.726Z,100.00
2023-01-11T18:06:42.468Z,100.00
2023-01-11T18:09:31.847Z,100.00
2023-01-11T18:12:14.271Z,100.00
2023-01-11T18:14:53.343Z,100.00
2023-01-11T18:17:46.459Z,100.00
2023-01-11T18:20:16.330Z,100.00
2023-01-11T18:23:07.801Z,100.00
2023-01-11T18:25:35.891Z,100.00
2023-01-11T18:28:12.022Z,100.00
2023-01-11T18:30:46.124Z,100.00
2023-01-11T18:33:19.839Z,100.00
2023-01-11T18:35:50.685Z,100.00
2023-01-11T18:38:36.521Z,100.00
2023-01-11T18:41:27.576Z,100.00
2023-01-11T18:43:55.652Z,100.00
2023-01-11T18:46:22.648Z,100.00
2023-01-11T18:48:49.700Z,100.00
2023-01-11T18:51:34.300Z,100.00
2023-01-11T18:54:01.636Z,100.00
2023-01-11T18:56:28.613Z,100.00
2023-01-11T18:58:55.495Z,100.00
2023-01-11T19:01:23.150Z,100.00
2023-01-11T19:03:51.115Z,100.00
2023-01-11T19:06:21.067Z,100.00
2023-01-11T19:08:47.910Z,100.00
2023-01-11T19:11:16.465Z,100.00
2023-01-11T19:13:45.076Z,100.00
2023-01-11T19:16:13.340Z,100.00
2023-01-11T19:18:40.272Z,100.00
2023-01-11T19:21:09.192Z,100.00
2023-01-11T19:23:36.006Z,100.00
2023-01-11T19:26:03.171Z,100.00
2023-01-11T19:28:30.408Z,100.00
2023-01-11T19:30:57.668Z,100.00
2023-01-11T19:33:25.170Z,100.00
2023-01-11T19:35:52.075Z,100.00
2023-01-11T19:38:20.256Z,100.00
2023-01-11T19:40:50.352Z,100.00
2023-01-11T19:43:17.618Z,100.00
2023-01-11T19:45:44.547Z,100.00
2023-01-11T19:48:12.328Z,100.00
2023-01-11T19:50:39.194Z,100.00
2023-01-11T19:53:06.028Z,100.00
2023-01-11T19:55:32.877Z,100.00
2023-01-11T19:57:59.783Z,100.00
2023-01-11T20:00:26.644Z,100.00
2023-01-11T20:02:53.623Z,100.00
2023-01-11T20:05:20.567Z,100.00
2023-01-11T20:07:47.517Z,100.00
2023-01-11T20:10:14.414Z,100.00
2023-01-11T20:12:41.279Z,100.00
2023-01-11T20:15:08.792Z,100.00
2023-01-11T20:17:37.862Z,100.00
2023-01-11T20:20:07.028Z,100.00
2023-01-11T20:22:34.134Z,100.00
2023-01-11T20:25:01.024Z,100.00
2023-01-11T20:27:29.305Z,100.00
2023-01-11T20:29:56.121Z,100.00
2023-01-11T20:32:40.201Z,100.00
2023-01-11T20:35:09.522Z,100.00
2023-01-11T20:37:36.786Z,100.00
2023-01-11T20:40:04.155Z,100.00
2023-01-11T20:42:31.503Z,100.00
2023-01-11T20:44:58.592Z,100.00
2023-01-11T20:47:25.401Z,100.00
2023-01-11T20:49:52.239Z,100.00
2023-01-11T20:52:19.124Z,100.00
2023-01-11T20:54:46.019Z,100.00
2023-01-11T20:57:12.968Z,100.00
2023-01-11T20:59:39.876Z,100.00
2023-01-11T21:02:07.712Z,100.00
2023-01-11T21:04:35.773Z,100.00
2023-01-11T21:07:02.769Z,100.00
2023-01-11T21:09:29.712Z,100.00
2023-01-11T21:11:56.797Z,100.00
2023-01-11T21:14:23.779Z,100.00
2023-01-11T21:16:50.798Z,100.00
2023-01-11T21:19:17.855Z,100.00
2023-01-11T21:21:44.837Z,100.00
2023-01-11T21:24:14.907Z,100.00
2023-01-11T21:26:43.636Z,100.00
2023-01-11T21:29:11.731Z,100.00
2023-01-11T21:31:40.291Z,100.00
2023-01-11T21:34:08.200Z,100.00
2023-01-11T21:36:35.225Z,100.00
2023-01-11T21:39:03.379Z,100.00
2023-01-11T21:41:51.719Z,100.00
2023-01-11T21:44:20.742Z,100.00
2023-01-11T21:46:56.896Z,100.00
2023-01-11T21:49:25.046Z,100.00
2023-01-11T21:51:52.882Z,100.00
2023-01-11T21:54:20.315Z,100.00
2023-01-11T21:56:48.774Z,100.00
2023-01-11T21:59:16.718Z,100.00
2023-01-11T22:01:45.974Z,100.00
2023-01-11T22:04:16.321Z,100.00
2023-01-11T22:06:50.884Z,100.00
2023-01-11T22:09:18.996Z,100.00
2023-01-11T22:11:46.520Z,100.00
2023-01-11T22:14:13.599Z,100.00
2023-01-11T22:16:40.886Z,100.00
2023-01-11T22:19:08.668Z,100.00
2023-01-11T22:21:37.130Z,100.00
2023-01-11T22:24:05.901Z,100.00
2023-01-11T22:26:36.465Z,100.00
2023-01-11T22:29:12.993Z,100.00
2023-01-11T22:31:51.516Z,100.00
2023-01-11T22:34:19.195Z,100.00
2023-01-11T22:36:46.522Z,100.00
2023-01-11T22:39:16.147Z,100.00
2023-01-11T22:41:46.045Z,100.00
2023-01-11T22:44:13.569Z,100.00
2023-01-11T22:46:40.925Z,100.00
2023-01-11T22:49:08.816Z,100.00
2023-01-11T22:51:36.571Z,100.00
2023-01-11T22:54:04.533Z,100.00
2023-01-11T22:56:32.782Z,100.00
2023-01-11T22:59:00.363Z,100.00
2023-01-11T23:01:29.925Z,100.00
2023-01-11T23:03:58.057Z,100.00
2023-01-11T23:06:28.953Z,100.00
2023-01-11T23:08:56.849Z,100.00
2023-01-11T23:11:50.291Z,100.00
2023-01-11T23:14:19.429Z,100.00
2023-01-11T23:16:49.839Z,100.00
2023-01-11T23:19:20.360Z,100.00
2023-01-11T23:21:48.075Z,100.00
2023-01-11T23:24:17.144Z,100.00
2023-01-11T23:26:45.287Z,100.00
2023-01-11T23:29:12.292Z,100.00
2023-01-11T23:31:39.349Z,100.00
2023-01-11T23:34:09.603Z,100.00
2023-01-11T23:36:43.121Z,100.00
2023-01-11T23:39:14.691Z,100.00
2023-01-11T23:42:00.267Z,100.00
2023-01-11T23:44:27.532Z,100.00
2023-01-11T23:47:12.781Z,100.00
2023-01-11T23:49:39.822Z,100.00
2023-01-11T23:52:07.033Z,100.00
2023-01-11T23:54:34.619Z,100.00
2023-01-11T23:57:03.271Z,100.00
2023-01-11T23:59:30.690Z,100.00
